Time,TemperatureF,DewpointF,PressureIn,WindDirection,WindDirectionDegrees,WindSpeedMPH,WindSpeedGustMPH,Humidity,HourlyPrecipIn,Conditions,Clouds,dailyrainin,SoftwareType,DateUTC
2013-01-15 00:07:00,36.9,25.1,30.06,NNE,22,3.2,-999.0,62,-99.99,,,0.00,Acu-Link.com,2013-01-15 05:07:00,
2013-01-15 00:22:00,36.7,24.9,30.07,NE,45,4.7,-999.0,62,-99.99,,,0.00,Acu-Link.com,2013-01-15 05:22:00,
2013-01-15 00:37:00,36.9,25.1,30.10,NNE,22,1.7,-999.0,62,-99.99,,,0.00,Acu-Link.com,2013-01-15 05:37:00,
2013-01-15 00:53:00,37.0,25.2,30.10,NNW,337,2.7,-999.0,62,-99.99,,,0.00,Acu-Link.com,2013-01-15 05:53:00,
2013-01-15 01:08:00,37.0,24.0,30.11,NNW,337,2.2,-999.0,59,-99.99,,,0.00,Acu-Link.com,2013-01-15 06:08:00,
2013-01-15 01:23:00,36.9,25.1,30.10,SE,135,0.0,-999.0,62,-99.99,,,0.00,Acu-Link.com,2013-01-15 06:23:00,
2013-01-15 01:39:00,36.9,25.1,30.11,NNW,337,5.8,-999.0,62,-99.99,,,0.00,Acu-Link.com,2013-01-15 06:39:00,
2013-01-15 01:54:00,36.7,24.9,30.11,NNW,337,1.7,-999.0,62,-99.99,,,0.00,Acu-Link.com,2013-01-15 06:54:00,
2013-01-15 02:10:00,36.3,24.2,30.11,NE,45,3.2,-999.0,61,-99.99,,,0.00,Acu-Link.com,2013-01-15 07:10:00,
2013-01-15 02:25:00,36.3,24.5,30.10,NNE,22,1.1,-999.0,62,-99.99,,,0.00,Acu-Link.com,2013-01-15 07:25:00,
2013-01-15 02:40:00,36.0,23.9,30.08,ESE,112,2.2,-999.0,61,-99.99,,,0.00,Acu-Link.com,2013-01-15 07:40:00,
2013-01-15 02:56:00,35.6,23.5,30.09,NNW,337,0.0,-999.0,61,-99.99,,,0.00,Acu-Link.com,2013-01-15 07:56:00,
2013-01-15 03:11:00,35.4,22.9,30.10,North,0,2.7,-999.0,60,-99.99,,,0.00,Acu-Link.com,2013-01-15 08:11:00,
2013-01-15 03:26:00,35.2,24.3,30.09,NE,45,1.7,-999.0,64,-99.99,,,0.00,Acu-Link.com,2013-01-15 08:26:00,
2013-01-15 03:42:00,34.9,22.8,30.08,East,90,0.0,-999.0,61,-99.99,,,0.00,Acu-Link.com,2013-01-15 08:42:00,
2013-01-15 03:57:00,34.7,21.9,30.08,NE,45,1.7,-999.0,59,-99.99,,,0.00,Acu-Link.com,2013-01-15 08:57:00,
2013-01-15 04:13:00,34.7,21.9,30.09,NNW,337,1.7,-999.0,59,-99.99,,,0.00,Acu-Link.com,2013-01-15 09:13:00,
2013-01-15 04:28:00,34.2,23.7,30.08,NNW,337,0.0,-999.0,65,-99.99,,,0.00,Acu-Link.com,2013-01-15 09:28:00,
2013-01-15 04:44:00,33.6,20.4,30.08,NE,45,0.0,-999.0,58,-99.99,,,0.00,Acu-Link.com,2013-01-15 09:44:00,
2013-01-15 04:59:00,33.3,20.5,30.08,NNW,337,0.0,-999.0,59,-99.99,,,0.00,Acu-Link.com,2013-01-15 09:59:00,
2013-01-15 05:14:00,33.3,24.6,30.09,NNE,22,2.7,-999.0,70,-99.99,,,0.00,Acu-Link.com,2013-01-15 10:14:00,
2013-01-15 05:29:00,32.7,23.0,30.10,North,0,1.7,-999.0,67,-99.99,,,0.00,Acu-Link.com,2013-01-15 10:29:00,
2013-01-15 05:45:00,32.2,22.5,30.09,NE,45,2.2,-999.0,67,-99.99,,,0.00,Acu-Link.com,2013-01-15 10:45:00,
2013-01-15 06:01:00,32.4,22.3,30.09,NE,45,2.2,-999.0,66,-99.99,,,0.00,Acu-Link.com,2013-01-15 11:01:00,
2013-01-15 06:16:00,32.4,20.5,30.10,NE,45,2.2,-999.0,61,-99.99,,,0.00,Acu-Link.com,2013-01-15 11:16:00,
2013-01-15 06:31:00,33.1,21.5,30.10,ESE,112,3.2,-999.0,62,-99.99,,,0.00,Acu-Link.com,2013-01-15 11:31:00,
2013-01-15 06:46:00,33.1,21.9,30.12,NNE,22,2.2,-999.0,63,-99.99,,,0.00,Acu-Link.com,2013-01-15 11:46:00,
2013-01-15 07:02:00,33.6,22.0,30.12,NNE,22,2.7,-999.0,62,-99.99,,,0.00,Acu-Link.com,2013-01-15 12:02:00,
2013-01-15 07:17:00,33.6,22.7,30.13,NNE,22,3.2,-999.0,64,-99.99,,,0.00,Acu-Link.com,2013-01-15 12:17:00,
2013-01-15 07:32:00,33.8,22.2,30.14,NNE,22,2.2,-999.0,62,-99.99,,,0.00,Acu-Link.com,2013-01-15 12:32:00,
2013-01-15 07:48:00,34.3,23.0,30.14,WNW,292,2.7,-999.0,63,-99.99,,,0.00,Acu-Link.com,2013-01-15 12:48:00,
2013-01-15 08:04:00,34.5,23.6,30.16,NE,45,3.2,-999.0,64,-99.99,,,0.00,Acu-Link.com,2013-01-15 13:04:00,
2013-01-15 08:19:00,34.5,23.2,30.15,North,0,4.7,-999.0,63,-99.99,,,0.00,Acu-Link.com,2013-01-15 13:19:00,
2013-01-15 08:34:00,35.1,23.0,30.15,NE,45,4.7,-999.0,61,-99.99,,,0.00,Acu-Link.com,2013-01-15 13:34:00,
2013-01-15 08:49:00,35.6,22.7,30.16,NE,45,3.2,-999.0,59,-99.99,,,0.00,Acu-Link.com,2013-01-15 13:49:00,
2013-01-15 09:05:00,36.1,22.4,30.14,North,0,6.3,-999.0,57,-99.99,,,0.00,Acu-Link.com,2013-01-15 14:05:00,
2013-01-15 09:20:00,36.5,22.3,30.15,NE,45,8.3,-999.0,56,-99.99,,,0.00,Acu-Link.com,2013-01-15 14:20:00,
2013-01-15 09:36:00,36.7,21.6,30.15,NE,45,5.3,-999.0,54,-99.99,,,0.00,Acu-Link.com,2013-01-15 14:36:00,
2013-01-15 09:51:00,37.0,21.9,30.16,NE,45,4.2,-999.0,54,-99.99,,,0.00,Acu-Link.com,2013-01-15 14:51:00,
2013-01-15 10:06:00,37.2,22.1,30.15,NE,45,6.3,-999.0,54,-99.99,,,0.00,Acu-Link.com,2013-01-15 15:06:00,
2013-01-15 10:22:00,37.2,22.1,30.15,NE,45,6.8,-999.0,54,-99.99,,,0.00,Acu-Link.com,2013-01-15 15:22:00,
2013-01-15 10:37:00,37.4,22.7,30.15,East,90,4.7,-999.0,55,-99.99,,,0.00,Acu-Link.com,2013-01-15 15:37:00,
2013-01-15 10:52:00,37.6,22.0,30.14,ENE,67,4.7,-999.0,53,-99.99,,,0.00,Acu-Link.com,2013-01-15 15:52:00,
2013-01-15 11:08:00,37.8,22.2,30.14,ENE,67,4.2,-999.0,53,-99.99,,,0.00,Acu-Link.com,2013-01-15 16:08:00,
2013-01-15 11:23:00,37.8,22.2,30.13,NNE,22,3.2,-999.0,53,-99.99,,,0.00,Acu-Link.com,2013-01-15 16:23:00,
2013-01-15 11:38:00,37.9,22.3,30.13,NW,315,5.8,-999.0,53,-99.99,,,0.00,Acu-Link.com,2013-01-15 16:38:00,
2013-01-15 11:54:00,37.9,21.9,30.11,NNE,22,3.7,-999.0,52,-99.99,,,0.00,Acu-Link.com,2013-01-15 16:54:00,
2013-01-15 12:09:00,38.1,22.1,30.11,East,90,3.2,-999.0,52,-99.99,,,0.00,Acu-Link.com,2013-01-15 17:09:00,
2013-01-15 12:24:00,38.3,21.8,30.11,East,90,2.7,-999.0,51,-99.99,,,0.00,Acu-Link.com,2013-01-15 17:24:00,
2013-01-15 12:40:00,38.7,21.7,30.11,East,90,2.2,-999.0,50,-99.99,,,0.00,Acu-Link.com,2013-01-15 17:40:00,
2013-01-15 12:55:00,38.8,21.8,30.11,NE,45,0.0,-999.0,50,-99.99,,,0.00,Acu-Link.com,2013-01-15 17:55:00,
2013-01-15 13:10:00,38.7,21.7,30.12,West,270,1.7,-999.0,50,-99.99,,,0.00,Acu-Link.com,2013-01-15 18:10:00,
2013-01-15 13:26:00,38.8,21.8,30.11,WNW,292,2.7,-999.0,50,-99.99,,,0.00,Acu-Link.com,2013-01-15 18:26:00,
2013-01-15 13:42:00,40.1,22.5,30.11,SE,135,0.0,-999.0,49,-99.99,,,0.00,Acu-Link.com,2013-01-15 18:42:00,
2013-01-15 13:57:00,41.9,22.6,30.11,SW,225,1.7,-999.0,46,-99.99,,,0.00,Acu-Link.com,2013-01-15 18:57:00,
2013-01-15 14:12:00,41.4,23.2,30.11,WSW,247,1.7,-999.0,48,-99.99,,,0.00,Acu-Link.com,2013-01-15 19:12:00,
2013-01-15 14:28:00,39.9,22.3,30.12,WNW,292,0.0,-999.0,49,-99.99,,,0.00,Acu-Link.com,2013-01-15 19:28:00,
2013-01-15 14:43:00,39.2,22.6,30.11,SSE,157,0.0,-999.0,51,-99.99,,,0.00,Acu-Link.com,2013-01-15 19:43:00,
2013-01-15 14:58:00,38.7,22.1,30.11,West,270,0.0,-999.0,51,-99.99,,,0.00,Acu-Link.com,2013-01-15 19:58:00,
2013-01-15 15:13:00,37.8,22.7,30.12,SSW,202,1.7,-999.0,54,-99.99,,,0.00,Acu-Link.com,2013-01-15 20:13:00,
2013-01-15 15:29:00,36.9,21.8,30.13,South,180,2.2,-999.0,54,-99.99,,,0.00,Acu-Link.com,2013-01-15 20:29:00,
2013-01-15 15:44:00,36.9,22.3,30.11,South,180,3.7,-999.0,55,-99.99,,,0.00,Acu-Link.com,2013-01-15 20:44:00,
2013-01-15 15:59:00,36.7,22.9,30.10,SSE,157,4.7,-999.0,57,-99.99,,,0.00,Acu-Link.com,2013-01-15 20:59:00,
2013-01-15 16:15:00,36.7,22.9,30.09,South,180,5.8,-999.0,57,-99.99,,,0.00,Acu-Link.com,2013-01-15 21:15:00,
2013-01-15 16:30:00,36.5,23.1,30.09,South,180,3.7,-999.0,58,-99.99,,,0.00,Acu-Link.com,2013-01-15 21:30:00,
2013-01-15 16:46:00,36.3,23.0,30.10,SSE,157,2.7,-999.0,58,-99.99,,,0.00,Acu-Link.com,2013-01-15 21:46:00,
2013-01-15 17:01:00,35.6,23.1,30.11,WSW,247,2.2,-999.0,60,-99.99,,,0.00,Acu-Link.com,2013-01-15 22:01:00,
2013-01-15 17:16:00,35.2,23.9,30.11,WSW,247,2.7,-999.0,63,-99.99,,,0.00,Acu-Link.com,2013-01-15 22:16:00,
2013-01-15 17:32:00,35.2,23.9,30.10,WSW,247,2.7,-999.0,63,-99.99,,,0.00,Acu-Link.com,2013-01-15 22:32:00,
2013-01-15 17:47:00,35.4,25.6,30.11,WSW,247,3.2,-999.0,67,-99.99,,,0.00,Acu-Link.com,2013-01-15 22:47:00,
2013-01-15 18:02:00,35.8,24.8,30.10,West,270,4.2,-999.0,64,-99.99,,,0.00,Acu-Link.com,2013-01-15 23:02:00,
2013-01-15 18:17:00,35.8,24.8,30.11,WSW,247,4.2,-999.0,64,-99.99,,,0.00,Acu-Link.com,2013-01-15 23:17:00,
2013-01-15 18:33:00,35.8,24.8,30.09,West,270,3.7,-999.0,64,-99.99,,,0.00,Acu-Link.com,2013-01-15 23:33:00,
2013-01-15 18:48:00,36.3,24.5,30.12,SW,225,4.7,-999.0,62,-99.99,,,0.00,Acu-Link.com,2013-01-15 23:48:00,
2013-01-15 19:03:00,36.7,24.5,30.12,WSW,247,4.7,-999.0,61,-99.99,,,0.00,Acu-Link.com,2013-01-16 00:03:00,
2013-01-15 19:19:00,36.3,25.7,30.11,NNE,22,2.2,-999.0,65,-99.99,,,0.00,Acu-Link.com,2013-01-16 00:19:00,
2013-01-15 19:35:00,34.7,25.6,30.10,ENE,67,2.2,-999.0,69,-99.99,,,0.00,Acu-Link.com,2013-01-16 00:35:00,
2013-01-15 19:50:00,34.7,24.9,30.10,NE,45,2.2,-999.0,67,-99.99,,,0.00,Acu-Link.com,2013-01-16 00:50:00,
2013-01-15 20:05:00,34.3,25.9,30.10,NE,45,2.2,-999.0,71,-99.99,,,0.00,Acu-Link.com,2013-01-16 01:05:00,
2013-01-15 20:21:00,33.8,24.7,30.09,NNE,22,0.0,-999.0,69,-99.99,,,0.00,Acu-Link.com,2013-01-16 01:21:00,
2013-01-15 20:36:00,33.4,24.0,30.10,North,0,1.1,-999.0,68,-99.99,,,0.00,Acu-Link.com,2013-01-16 01:36:00,
2013-01-15 20:52:00,33.4,21.4,30.10,ESE,112,6.8,-999.0,61,-99.99,,,0.00,Acu-Link.com,2013-01-16 01:52:00,
2013-01-15 21:07:00,33.4,20.2,30.10,NE,45,6.8,-999.0,58,-99.99,,,0.00,Acu-Link.com,2013-01-16 02:07:00,
2013-01-15 21:22:00,33.4,19.8,30.10,East,90,4.7,-999.0,57,-99.99,,,0.00,Acu-Link.com,2013-01-16 02:22:00,
2013-01-15 21:38:00,33.3,19.7,30.10,NE,45,6.3,-999.0,57,-99.99,,,0.00,Acu-Link.com,2013-01-16 02:38:00,
2013-01-15 21:53:00,33.3,19.7,30.11,NE,45,4.7,-999.0,57,-99.99,,,0.00,Acu-Link.com,2013-01-16 02:53:00,
2013-01-15 22:08:00,33.1,21.1,30.09,NE,45,6.8,-999.0,61,-99.99,,,0.00,Acu-Link.com,2013-01-16 03:08:00,
2013-01-15 22:24:00,33.1,21.9,30.11,East,90,9.9,-999.0,63,-99.99,,,0.00,Acu-Link.com,2013-01-16 03:24:00,
2013-01-15 22:39:00,32.7,21.1,30.09,NE,45,4.7,-999.0,62,-99.99,,,0.00,Acu-Link.com,2013-01-16 03:39:00,
2013-01-15 22:54:00,32.5,21.3,30.10,ENE,67,5.8,-999.0,63,-99.99,,,0.00,Acu-Link.com,2013-01-16 03:54:00,
2013-01-15 23:09:00,32.4,20.9,30.10,ENE,67,6.8,-999.0,62,-99.99,,,0.00,Acu-Link.com,2013-01-16 04:09:00,
2013-01-15 23:25:00,32.4,20.5,30.10,ENE,67,9.9,-999.0,61,-99.99,,,0.00,Acu-Link.com,2013-01-16 04:25:00,
2013-01-15 23:40:00,32.5,20.6,30.10,ENE,67,6.3,-999.0,61,-99.99,,,0.00,Acu-Link.com,2013-01-16 04:40:00,
2013-01-15 23:56:00,32.5,20.6,30.10,NE,45,7.8,-999.0,61,-99.99,,,0.00,Acu-Link.com,2013-01-16 04:56:00,